Time;durP1;ratioP1;P1;durP2;ratioP2;P2;SDS_P1;SDS_P2;PMS_P1;PMS_P2;Temp;Humidity;BMP_temperature;BMP_pressure;BME280_temperature;BME280_humidity;BME280_pressure;Samples;Min_cycle;Max_cycle;Signal;HPM_P1;HPM_P2
2021/07/11 00:00:47;;;;;;;7.60;5.43;;;;;;;13.68;79.84;99923.34;1625591;85;20951;-65
2021/07/11 00:03:15;;;;;;;5.47;4.67;;;;;;;13.69;79.95;99919.77;1643569;84;20937;-65
2021/07/11 00:05:42;;;;;;;12.00;4.90;;;;;;;13.64;80.00;99913.02;1645868;85;21523;-65
2021/07/11 00:08:09;;;;;;;8.25;5.03;;;;;;;13.71;80.06;99919.23;1635127;85;20959;-65
2021/07/11 00:10:36;;;;;;;5.30;4.80;;;;;;;13.73;80.12;99922.62;1643082;84;21504;-65
2021/07/11 00:13:04;;;;;;;6.97;4.92;;;;;;;13.74;80.21;99922.98;1641999;85;22196;-65
2021/07/11 00:15:30;;;;;;;5.75;4.90;;;;;;;13.75;80.18;99922.04;1641289;84;21518;-65
2021/07/11 00:18:00;;;;;;;5.43;4.90;;;;;;;13.76;80.26;99920.66;1654058;84;21068;-66
2021/07/11 00:20:27;;;;;;;7.40;5.05;;;;;;;13.77;80.27;99927.58;1648947;85;21062;-65
2021/07/11 00:22:54;;;;;;;6.95;5.45;;;;;;;13.78;80.20;99924.48;1641642;85;21266;-65
2021/07/11 00:25:21;;;;;;;8.03;4.83;;;;;;;13.75;80.23;99931.23;1638161;85;21018;-65
2021/07/11 00:27:48;;;;;;;11.33;4.70;;;;;;;13.74;80.20;99930.86;1619696;85;20977;-65
2021/07/11 00:30:17;;;;;;;8.80;5.03;;;;;;;13.62;79.96;99931.93;1634532;85;20963;-65
2021/07/11 00:32:44;;;;;;;4.83;4.33;;;;;;;13.48;80.11;99929.72;1629198;84;20933;-65
2021/07/11 00:35:11;;;;;;;5.90;4.35;;;;;;;13.36;80.06;99932.53;1622194;85;21159;-65
2021/07/11 00:37:38;;;;;;;5.22;4.72;;;;;;;13.24;80.22;99934.50;1624675;85;21051;-65
2021/07/11 00:40:07;;;;;;;5.80;4.33;;;;;;;13.17;80.44;99934.84;1635826;85;20990;-65
2021/07/11 00:42:34;;;;;;;5.33;4.72;;;;;;;13.17;80.63;99933.53;1664310;84;21923;-65
2021/07/11 00:45:01;;;;;;;7.72;5.50;;;;;;;13.14;80.70;99940.25;1636351;85;20914;-65
2021/07/11 00:47:28;;;;;;;7.12;5.17;;;;;;;13.18;80.90;99939.14;1648027;84;21098;-65
2021/07/11 00:49:55;;;;;;;8.15;6.37;;;;;;;13.21;80.75;99937.66;1647599;84;20909;-65
2021/07/11 00:52:21;;;;;;;8.98;5.45;;;;;;;13.23;80.80;99938.06;1652628;84;21385;-65
2021/07/11 00:54:48;;;;;;;6.63;6.00;;;;;;;13.27;81.04;99929.11;1646758;84;20999;-65
2021/07/11 00:57:14;;;;;;;6.87;5.10;;;;;;;13.33;81.11;99928.77;1635110;84;20985;-65
2021/07/11 00:59:41;;;;;;;8.13;5.53;;;;;;;13.35;81.03;99924.29;1645861;84;21116;-65
2021/07/11 01:02:22;;;;;;;8.10;5.08;;;;;;;13.32;80.90;99928.40;1655708;84;20965;-65
2021/07/11 01:05:08;;;;;;;6.15;4.70;;;;;;;13.27;80.85;99936.98;1653108;84;21546;-65
2021/07/11 01:07:48;;;;;;;6.45;4.85;;;;;;;13.19;80.93;99932.98;1645389;84;20963;-65
2021/07/11 01:10:39;;;;;;;5.35;4.75;;;;;;;13.13;81.00;99935.91;1648116;84;21031;-65
2021/07/11 01:13:10;;;;;;;7.30;4.42;;;;;;;13.08;81.04;99932.72;1638664;84;21132;-65
2021/07/11 01:15:39;;;;;;;6.12;4.40;;;;;;;13.04;81.08;99933.80;1631095;84;21058;-65
2021/07/11 01:18:07;;;;;;;5.28;4.42;;;;;;;13.01;81.17;99930.04;1635443;85;21662;-65
2021/07/11 01:20:47;;;;;;;7.25;4.42;;;;;;;13.01;81.21;99936.59;1622866;85;21039;-65
2021/07/11 01:23:45;;;;;;;9.65;4.75;;;;;;;12.98;81.27;99943.31;1643585;84;20967;-66
2021/07/11 01:26:14;;;;;;;5.15;4.47;;;;;;;12.96;81.32;99937.30;1646979;85;21123;-65
2021/07/11 01:28:42;;;;;;;4.62;4.22;;;;;;;12.94;81.34;99943.11;1643074;85;21033;-65
2021/07/11 01:31:11;;;;;;;5.45;4.22;;;;;;;12.86;81.28;99934.81;1628823;84;21132;-65
2021/07/11 01:33:41;;;;;;;6.08;3.67;;;;;;;12.75;81.20;99938.83;1647965;84;21040;-65
2021/07/11 01:36:10;;;;;;;3.90;3.50;;;;;;;12.63;81.18;99939.48;1631635;84;20936;-65
2021/07/11 01:38:38;;;;;;;4.65;4.03;;;;;;;12.54;81.25;99938.16;1660639;84;21376;-65
2021/07/11 01:41:08;;;;;;;6.12;4.72;;;;;;;12.47;81.43;99942.52;1635300;84;20941;-65
2021/07/11 01:43:35;;;;;;;8.65;4.97;;;;;;;12.48;81.71;99945.50;1640340;85;20935;-65
2021/07/11 01:46:03;;;;;;;;;;;;;;;12.54;81.92;99947.80;1648305;84;22168;-65
2021/07/11 01:48:30;;;;;;;;;;;;;;;12.56;82.01;99945.12;1653824;84;20134;-65
2021/07/11 01:50:58;;;;;;;5.25;4.50;;;;;;;12.59;81.99;99943.17;1643356;84;21297;-65
2021/07/11 01:53:27;;;;;;;;;;;;;;;12.58;81.86;99942.80;1653190;84;20985;-65
2021/07/11 01:55:54;;;;;;;5.70;4.55;;;;;;;12.58;81.93;99944.11;1645163;85;20459;-65
2021/07/11 01:58:21;;;;;;;5.47;3.80;;;;;;;12.53;81.85;99959.22;1644482;84;20986;-65
2021/07/11 02:00:50;;;;;;;3.25;2.95;;;;;;;12.43;81.67;99957.98;1656883;84;21551;-65
2021/07/11 02:03:22;;;;;;;4.65;3.92;;;;;;;12.30;81.53;99962.55;1639448;84;21933;-65
2021/07/11 02:05:50;;;;;;;5.20;3.80;;;;;;;12.18;81.67;99969.69;1635460;85;20970;-65
2021/07/11 02:08:18;;;;;;;4.35;3.15;;;;;;;12.14;81.90;99969.47;1641760;84;20997;-65
2021/07/11 02:10:48;;;;;;;4.17;3.77;;;;;;;12.12;82.04;99975.23;1642504;84;28204;-65
2021/07/11 02:13:34;;;;;;;5.70;4.08;;;;;;;12.15;82.10;99977.70;1652499;84;20941;-65
2021/07/11 02:16:09;;;;;;;11.53;5.30;;;;;;;12.16;82.09;99981.19;1596550;87;21153;-66
2021/07/11 02:18:39;;;;;;;5.25;4.25;;;;;;;12.20;82.27;99984.86;1593584;87;20987;-65
2021/07/11 02:21:07;;;;;;;6.62;4.05;;;;;;;12.21;82.29;99986.58;1596893;87;21156;-65
2021/07/11 02:23:36;;;;;;;8.93;5.25;;;;;;;12.21;82.31;99990.50;1590972;87;21048;-65
2021/07/11 02:26:06;;;;;;;4.58;4.17;;;;;;;12.22;82.33;99997.42;1595368;87;21562;-65
2021/07/11 02:28:35;;;;;;;5.53;4.33;;;;;;;12.25;82.41;99992.03;1599313;87;21044;-65
2021/07/11 02:31:05;;;;;;;5.58;4.22;;;;;;;12.29;82.41;99995.34;1594338;87;21011;-65
2021/07/11 02:33:36;;;;;;;5.78;4.75;;;;;;;12.34;82.47;99991.19;1598689;87;21134;-65
2021/07/11 02:36:23;;;;;;;4.80;4.30;;;;;;;12.39;82.47;99994.42;1603667;87;20999;-65
2021/07/11 02:39:04;;;;;;;5.97;4.95;;;;;;;12.43;82.48;100002.50;1598975;87;21053;-65
2021/07/11 02:41:32;;;;;;;6.53;4.20;;;;;;;12.44;82.34;99997.67;1590371;87;20989;-65
2021/07/11 02:44:01;;;;;;;6.50;4.22;;;;;;;12.45;82.32;99998.04;1591239;87;20998;-65
2021/07/11 02:46:34;;;;;;;8.03;4.00;;;;;;;12.44;82.36;99997.67;1573287;87;20971;-65
2021/07/11 02:49:03;;;;;;;5.92;3.17;;;;;;;12.45;82.30;99995.42;1586911;87;21018;-65
2021/07/11 02:51:35;;;;;;;8.55;4.15;;;;;;;12.42;82.17;99992.49;1575377;88;20962;-65
2021/07/11 02:54:02;;;;;;;5.92;4.92;;;;;;;12.45;82.52;100000.66;1632363;85;21158;-65
2021/07/11 02:56:35;;;;;;;8.08;5.92;;;;;;;12.64;82.86;100011.90;1636748;85;20954;-65
2021/07/11 02:59:03;;;;;;;7.22;5.30;;;;;;;13.07;83.27;100010.97;1625178;85;21569;-65
2021/07/11 03:01:31;;;;;;;10.88;6.12;;;;;;;13.77;83.53;100009.41;1636240;85;21473;-65
2021/07/11 03:04:00;;;;;;;7.70;5.47;;;;;;;14.42;83.19;100007.41;1642530;85;20957;-66
2021/07/11 03:06:27;;;;;;;7.37;5.90;;;;;;;15.18;83.18;100009.89;1655909;84;21779;-65
2021/07/11 03:08:54;;;;;;;7.70;5.45;;;;;;;15.91;82.95;100009.28;1650579;85;21091;-65
2021/07/11 03:11:20;;;;;;;6.43;5.83;;;;;;;16.68;82.75;100020.39;1651257;84;20968;-65
2021/07/11 03:13:48;;;;;;;5.97;5.05;;;;;;;17.48;82.48;100017.53;1631329;85;20972;-66
2021/07/11 03:16:15;;;;;;;8.95;5.00;;;;;;;18.25;81.98;100018.09;1661266;84;20977;-65
2021/07/11 03:18:43;;;;;;;7.65;5.45;;;;;;;18.93;81.60;100012.98;1647437;84;21743;-66
2021/07/11 03:21:12;;;;;;;8.10;5.30;;;;;;;19.56;80.55;100011.54;1647584;84;21455;-65
2021/07/11 03:23:39;;;;;;;8.58;5.03;;;;;;;20.12;80.44;100009.25;1651855;84;20968;-66
2021/07/11 03:26:06;;;;;;;6.72;5.08;;;;;;;20.68;79.97;100005.02;1664659;84;28135;-65
2021/07/11 03:28:35;;;;;;;7.95;5.20;;;;;;;21.40;80.09;100003.29;1637482;85;20941;-65
2021/07/11 03:31:07;;;;;;;7.05;4.70;;;;;;;22.28;79.80;100004.27;1636743;85;21059;-66
2021/07/11 03:33:38;;;;;;;6.78;4.65;;;;;;;22.98;78.60;100004.36;1634581;85;20942;-66
2021/07/11 03:36:06;;;;;;;6.70;4.90;;;;;;;23.20;77.21;100003.66;1645293;84;20934;-66
2021/07/11 03:38:38;;;;;;;5.45;4.40;;;;;;;23.30;76.48;100003.13;1608303;86;20904;-65
2021/07/11 03:41:09;;;;;;;6.80;4.15;;;;;;;23.54;76.25;100011.06;1643400;84;21520;-65
2021/07/11 03:43:39;;;;;;;8.43;4.45;;;;;;;23.97;76.49;100007.70;1641264;85;21937;-66
2021/07/11 03:46:09;;;;;;;7.78;4.53;;;;;;;24.78;76.38;100007.55;1636470;84;20934;-66
2021/07/11 03:48:49;;;;;;;8.25;4.65;;;;;;;25.45;76.11;100007.75;1625731;85;21017;-66
2021/07/11 03:51:17;;;;;;;5.35;4.10;;;;;;;25.99;74.87;100007.44;1641828;84;20988;-66
2021/07/11 03:53:46;;;;;;;5.58;3.98;;;;;;;25.92;73.45;100005.08;1649630;85;21335;-67
2021/07/11 03:56:14;;;;;;;8.28;4.08;;;;;;;25.85;73.13;100014.75;1650348;85;21130;-66
2021/07/11 03:58:41;;;;;;;6.58;3.67;;;;;;;26.30;73.59;100013.48;1658677;84;20945;-66
2021/07/11 04:01:08;;;;;;;5.50;3.95;;;;;;;26.80;72.99;100005.74;1643100;84;21571;-66
2021/07/11 04:03:41;;;;;;;3.90;3.47;;;;;;;27.34;72.79;100003.28;1632395;85;20922;-65
2021/07/11 04:06:17;;;;;;;4.65;3.70;;;;;;;27.38;71.10;100007.27;1648446;84;20964;-67
2021/07/11 04:08:44;;;;;;;13.77;3.90;;;;;;;27.30;70.31;100009.16;1618126;86;21133;-66
2021/07/11 04:11:12;;;;;;;5.30;3.15;;;;;;;27.56;70.35;100006.17;1653125;84;21460;-66
2021/07/11 04:13:39;;;;;;;6.28;4.20;;;;;;;27.84;70.13;100010.09;1652220;85;21523;-66
2021/07/11 04:16:09;;;;;;;3.80;3.40;;;;;;;28.30;69.81;100012.76;1638862;84;21139;-67
2021/07/11 04:18:43;;;;;;;6.37;3.85;;;;;;;28.72;68.60;100016.78;1641870;84;21030;-67
2021/07/11 04:21:12;;;;;;;6.72;4.15;;;;;;;28.54;67.33;100016.30;1639811;84;21065;-66
2021/07/11 04:23:39;;;;;;;6.58;3.50;;;;;;;28.40;67.04;100014.35;1655632;84;20937;-66
2021/07/11 04:26:07;;;;;;;5.35;3.65;;;;;;;28.69;66.84;100017.14;1646750;84;21054;-66
2021/07/11 04:28:40;;;;;;;8.25;2.90;;;;;;;28.86;66.06;100015.64;1644149;84;20947;-66
2021/07/11 04:31:07;;;;;;;7.90;3.55;;;;;;;29.19;66.00;100010.25;1630137;85;20972;-67
2021/07/11 04:33:34;;;;;;;3.75;3.00;;;;;;;29.40;65.41;100017.55;1648184;84;21090;-67
2021/07/11 04:36:04;;;;;;;5.87;2.67;;;;;;;29.75;65.05;100015.11;1632000;85;20912;-67
2021/07/11 04:38:31;;;;;;;7.92;3.10;;;;;;;30.10;64.21;100018.77;1650287;84;20957;-66
2021/07/11 04:40:59;;;;;;;5.10;3.67;;;;;;;30.37;63.68;100018.23;1625629;85;21607;-66
2021/07/11 04:43:26;;;;;;;4.53;2.98;;;;;;;30.61;62.75;100016.95;1644756;84;20885;-66
2021/07/11 04:45:52;;;;;;;5.17;3.00;;;;;;;30.96;63.46;100013.30;1633998;85;21702;-66
2021/07/11 04:48:19;;;;;;;5.72;2.62;;;;;;;31.49;62.30;100022.73;1632863;85;20971;-66
2021/07/11 04:50:47;;;;;;;4.72;2.92;;;;;;;31.54;61.29;100022.96;1639027;85;21786;-66
2021/07/11 04:53:15;;;;;;;3.20;2.42;;;;;;;31.42;60.12;100022.19;1622730;86;21534;-67
2021/07/11 04:55:47;;;;;;;3.58;2.52;;;;;;;31.39;60.26;100018.52;1635969;85;21520;-67
2021/07/11 04:58:15;;;;;;;4.33;2.45;;;;;;;31.59;59.96;100023.16;1643061;85;21901;-66
2021/07/11 05:00:43;;;;;;;8.93;3.20;;;;;;;31.76;59.47;100027.19;1620997;85;21835;-66
2021/07/11 05:03:10;;;;;;;4.60;2.15;;;;;;;32.02;58.90;100025.61;1608083;86;20974;-66
2021/07/11 05:05:37;;;;;;;2.87;2.35;;;;;;;32.07;57.84;100033.94;1596028;87;21723;-67
2021/07/11 05:08:04;;;;;;;4.25;2.55;;;;;;;32.05;56.98;100030.60;1596496;87;21079;-66
2021/07/11 05:10:31;;;;;;;3.50;2.55;;;;;;;32.05;56.98;100030.60;1647361;84;21620;-65
2021/07/11 05:12:58;;;;;;;2.85;2.30;;;;;;;31.68;56.13;100023.31;1641005;85;21079;-65
2021/07/11 05:15:25;;;;;;;3.62;2.70;;;;;;;31.49;55.88;100033.52;1593288;87;20985;-65
2021/07/11 05:17:51;;;;;;;4.22;2.58;;;;;;;31.42;55.79;100028.94;1625341;85;20947;-66
2021/07/11 05:20:18;;;;;;;4.53;2.35;;;;;;;31.61;55.44;100031.90;1634535;85;20944;-65
2021/07/11 05:22:45;;;;;;;6.33;2.52;;;;;;;31.87;55.43;100031.99;1633963;85;21085;-65
2021/07/11 05:25:12;;;;;;;4.72;2.22;;;;;;;32.27;54.96;100029.91;1619297;85;20930;-66
2021/07/11 05:27:38;;;;;;;3.62;2.27;;;;;;;32.57;54.64;100034.39;1619597;86;20999;-65
2021/07/11 05:30:06;;;;;;;5.05;2.10;;;;;;;32.79;54.21;100035.52;1628222;85;20984;-65
2021/07/11 05:32:33;;;;;;;4.00;2.27;;;;;;;33.12;53.67;100033.61;1622823;85;20962;-65
2021/07/11 05:34:59;;;;;;;5.28;2.60;;;;;;;33.07;53.02;100037.47;1633758;85;21934;-66
2021/07/11 05:37:26;;;;;;;4.70;2.10;;;;;;;32.93;52.42;100039.34;1622175;85;21437;-65
2021/07/11 05:39:53;;;;;;;4.50;2.40;;;;;;;32.92;52.00;100042.27;1600209;87;20988;-66
2021/07/11 05:42:20;;;;;;;4.22;2.10;;;;;;;32.83;51.65;100038.14;1592910;87;21008;-66
2021/07/11 05:44:47;;;;;;;3.90;2.15;;;;;;;32.79;51.15;100042.28;1600823;87;21019;-65
2021/07/11 05:47:13;;;;;;;2.20;1.70;;;;;;;32.81;50.95;100034.80;1637071;84;21121;-66
2021/07/11 05:49:40;;;;;;;4.35;2.27;;;;;;;32.72;50.41;100042.30;1644142;84;20969;-65
2021/07/11 05:52:07;;;;;;;3.35;2.25;;;;;;;32.55;50.21;100045.95;1639159;84;20892;-66
2021/07/11 05:54:35;;;;;;;3.30;1.75;;;;;;;32.57;49.95;100045.20;1634774;85;20989;-65
2021/07/11 05:57:02;;;;;;;5.87;1.62;;;;;;;32.54;49.65;100048.32;1648863;85;20902;-65
2021/07/11 05:59:29;;;;;;;6.58;2.15;;;;;;;32.63;49.38;100052.50;1640182;85;21936;-65
2021/07/11 06:01:55;;;;;;;6.40;2.40;;;;;;;32.68;49.03;100049.98;1655847;84;20968;-65
2021/07/11 06:04:22;;;;;;;1.82;1.42;;;;;;;32.73;49.13;100044.78;1644903;84;21078;-65
2021/07/11 06:06:48;;;;;;;4.40;1.52;;;;;;;32.88;48.54;100043.72;1647694;84;21075;-63
2021/07/11 06:09:15;;;;;;;2.83;1.40;;;;;;;32.89;48.29;100039.99;1646310;84;21007;-63
2021/07/11 06:11:42;;;;;;;4.95;1.55;;;;;;;32.89;48.02;100042.70;1641652;84;21129;-64
2021/07/11 06:14:08;;;;;;;2.65;1.55;;;;;;;32.93;47.68;100042.58;1657005;84;20968;-64
2021/07/11 06:16:35;;;;;;;6.85;1.70;;;;;;;32.91;47.26;100043.30;1645594;84;21523;-64
2021/07/11 06:19:02;;;;;;;1.52;1.30;;;;;;;32.94;47.15;100042.91;1640929;85;20961;-64
2021/07/11 06:21:29;;;;;;;5.92;1.30;;;;;;;32.75;46.42;100043.23;1651418;85;20961;-64
2021/07/11 06:23:56;;;;;;;2.33;1.60;;;;;;;32.75;46.79;100041.36;1638432;85;21084;-63
2021/07/11 06:26:22;;;;;;;2.35;1.60;;;;;;;32.86;46.54;100043.13;1634644;84;20980;-64
2021/07/11 06:28:49;;;;;;;2.70;1.40;;;;;;;32.94;46.10;100044.25;1645528;84;21450;-63
2021/07/11 06:31:15;;;;;;;5.87;1.45;;;;;;;32.87;45.88;100046.12;1649974;84;20936;-64
2021/07/11 06:33:42;;;;;;;3.98;1.52;;;;;;;32.93;46.22;100050.16;1648241;84;20967;-63
2021/07/11 06:36:09;;;;;;;2.98;1.50;;;;;;;33.17;45.84;100045.98;1658310;84;21251;-63
2021/07/11 06:38:36;;;;;;;6.65;1.65;;;;;;;33.13;44.93;100044.73;1648195;85;21581;-63
2021/07/11 06:41:03;;;;;;;2.72;1.40;;;;;;;32.81;45.10;100046.44;1646221;85;20931;-63
2021/07/11 06:43:30;;;;;;;1.87;1.20;;;;;;;32.56;44.29;100050.30;1632168;84;21550;-64
2021/07/11 06:45:56;;;;;;;1.60;1.15;;;;;;;32.42;44.74;100052.67;1645265;85;21056;-64
2021/07/11 06:48:23;;;;;;;3.22;1.57;;;;;;;32.72;44.47;100059.35;1642677;84;21104;-64
2021/07/11 06:50:50;;;;;;;2.05;1.22;;;;;;;32.44;43.52;100054.66;1641935;85;21020;-64
2021/07/11 06:53:16;;;;;;;1.67;1.05;;;;;;;32.14;43.64;100053.67;1638023;84;21640;-63
2021/07/11 06:55:43;;;;;;;2.22;1.10;;;;;;;32.03;43.69;100051.57;1634821;85;20930;-64
2021/07/11 06:58:11;;;;;;;2.70;1.42;;;;;;;31.99;43.62;100054.37;1651496;85;21012;-64
2021/07/11 07:00:37;;;;;;;2.10;1.30;;;;;;;32.32;43.93;100054.41;1649822;84;21356;-63
2021/07/11 07:03:04;;;;;;;2.27;1.27;;;;;;;32.45;43.52;100048.20;1635755;84;21014;-63
2021/07/11 07:05:31;;;;;;;10.10;1.70;;;;;;;32.25;42.61;100053.06;1623120;84;20924;-64
2021/07/11 07:07:58;;;;;;;4.97;1.60;;;;;;;32.24;43.39;100052.77;1658411;85;21066;-64
2021/07/11 07:10:24;;;;;;;3.47;1.50;;;;;;;32.39;43.37;100049.03;1647994;85;21061;-64
2021/07/11 07:12:51;;;;;;;3.27;1.45;;;;;;;32.31;42.98;100022.52;1641253;84;21300;-63
2021/07/11 07:15:18;;;;;;;4.95;1.50;;;;;;;32.63;43.04;100043.04;1639584;85;21678;-64
2021/07/11 07:17:45;;;;;;;1.57;1.22;;;;;;;32.52;42.25;100043.67;1644935;85;21406;-63
2021/07/11 07:20:12;;;;;;;2.10;1.32;;;;;;;32.00;40.67;100010.13;1633361;85;20974;-64
2021/07/11 07:22:39;;;;;;;2.15;1.20;;;;;;;30.81;40.76;100015.28;1632005;85;21597;-64
2021/07/11 07:25:09;;;;;;;3.30;1.15;;;;;;;30.63;42.22;100033.77;1632894;85;21130;-63
2021/07/11 07:27:36;;;;;;;4.00;1.15;;;;;;;30.73;41.59;100038.31;1652623;84;21057;-64
2021/07/11 07:30:05;;;;;;;1.40;1.12;;;;;;;30.26;41.19;100038.44;1623132;85;20954;-63
2021/07/11 07:32:32;;;;;;;4.37;1.20;;;;;;;29.78;41.45;100030.05;1633442;85;21081;-63
2021/07/11 07:34:58;;;;;;;5.35;1.70;;;;;;;28.92;41.58;100043.13;1605272;86;21031;-64
2021/07/11 07:37:25;;;;;;;22.60;2.02;;;;;;;28.26;42.20;100043.69;1620285;86;21163;-65
2021/07/11 07:39:51;;;;;;;2.70;1.62;;;;;;;28.30;42.90;100041.47;1645323;85;21465;-66
2021/07/11 07:42:18;;;;;;;2.20;1.72;;;;;;;28.33;42.60;100043.27;1639744;84;20891;-64
2021/07/11 07:44:45;;;;;;;3.92;1.50;;;;;;;28.48;43.27;100035.80;1640654;84;20991;-64
2021/07/11 07:47:12;;;;;;;6.35;2.67;;;;;;;28.36;42.73;100041.25;1639897;85;20929;-65
2021/07/11 07:49:39;;;;;;;3.12;1.67;;;;;;;28.38;43.48;100035.20;1650994;84;21103;-64
2021/07/11 07:52:05;;;;;;;2.83;1.80;;;;;;;28.53;43.51;100038.78;1653090;84;20953;-64
2021/07/11 07:54:32;;;;;;;2.47;1.50;;;;;;;28.07;42.90;100038.27;1650579;85;21027;-64
2021/07/11 07:56:59;;;;;;;2.25;1.55;;;;;;;28.14;43.69;100033.02;1608990;86;20934;-65
2021/07/11 07:59:25;;;;;;;;;;;;;;;28.28;43.59;100032.75;1651700;84;20937;-64
2021/07/11 08:01:52;;;;;;;5.97;1.90;;;;;;;28.26;43.84;100032.95;1643765;85;21110;-64
2021/07/11 08:04:20;;;;;;;;;;;;;;;28.22;43.99;100030.79;1662041;84;21067;-64
2021/07/11 08:06:48;;;;;;;3.27;1.50;;;;;;;28.17;43.49;100035.34;1641905;84;20123;-64
2021/07/11 08:09:16;;;;;;;6.55;1.60;;;;;;;27.96;43.58;100033.83;1634880;85;20999;-64
2021/07/11 08:11:44;;;;;;;5.22;2.33;;;;;;;27.66;43.77;100030.94;1642019;84;21005;-65
2021/07/11 08:14:11;;;;;;;4.22;1.90;;;;;;;27.56;44.05;100038.36;1639996;85;22141;-64
2021/07/11 08:16:37;;;;;;;3.77;1.67;;;;;;;27.73;44.43;100041.79;1655662;84;20975;-64
2021/07/11 08:19:04;;;;;;;;;;;;;;;27.93;44.44;100050.29;1634798;85;21427;-64
2021/07/11 08:21:31;;;;;;;3.35;1.42;;;;;;;28.02;44.12;100046.53;1626608;85;20134;-64
2021/07/11 08:23:58;;;;;;;;;;;;;;;27.85;44.02;100049.31;1621958;86;20973;-64
2021/07/11 08:26:25;;;;;;;3.08;1.80;;;;;;;27.71;44.01;100046.01;1588668;87;21144;-64
2021/07/11 08:28:52;;;;;;;2.65;1.50;;;;;;;27.56;44.05;100051.77;1578610;88;21066;-64
2021/07/11 08:31:22;;;;;;;5.67;1.87;;;;;;;27.50;44.04;100058.66;1598580;87;21178;-63
2021/07/11 08:33:51;;;;;;;4.25;1.98;;;;;;;27.47;43.83;100055.50;1625194;85;20947;-64
2021/07/11 08:36:19;;;;;;;3.37;1.75;;;;;;;27.49;44.01;100060.20;1634748;85;20997;-64
2021/07/11 08:38:46;;;;;;;3.47;1.57;;;;;;;27.55;44.17;100056.30;1625276;85;21304;-65
2021/07/11 08:41:14;;;;;;;2.25;1.62;;;;;;;27.65;44.11;100058.79;1631955;85;20888;-64
2021/07/11 08:43:41;;;;;;;2.95;1.45;;;;;;;27.73;44.00;100061.44;1639287;85;21445;-64
2021/07/11 08:46:08;;;;;;;3.80;1.57;;;;;;;27.81;43.96;100061.42;1637321;85;20928;-64
2021/07/11 08:48:34;;;;;;;;;;;;;;;27.79;44.02;100055.39;1628994;85;20947;-64
2021/07/11 08:51:03;;;;;;;6.20;1.87;;;;;;;27.23;43.32;100051.91;1642940;84;21141;-64
2021/07/11 08:53:34;;;;;;;1.87;1.37;;;;;;;26.42;43.53;100063.00;1631842;85;21042;-64
2021/07/11 08:56:02;;;;;;;1.90;1.60;;;;;;;25.90;43.80;100067.26;1639191;85;21544;-64
2021/07/11 08:58:30;;;;;;;2.65;1.37;;;;;;;25.71;44.23;100060.81;1623575;85;21089;-64
2021/07/11 09:00:57;;;;;;;4.53;2.12;;;;;;;25.66;44.57;100071.52;1631888;84;20963;-64
2021/07/11 09:03:25;;;;;;;5.00;1.67;;;;;;;25.52;44.72;100064.11;1633398;85;21110;-63
2021/07/11 09:05:55;;;;;;;4.75;1.57;;;;;;;25.44;44.93;100066.74;1628991;86;20992;-64
2021/07/11 09:08:25;;;;;;;3.67;1.77;;;;;;;25.31;44.90;100067.16;1600079;87;20941;-63
2021/07/11 09:10:58;;;;;;;2.50;1.67;;;;;;;25.30;45.41;100070.02;1653485;84;20976;-64
2021/07/11 09:13:30;;;;;;;2.35;1.47;;;;;;;25.26;45.56;100064.63;1648953;84;20956;-64
2021/07/11 09:15:59;;;;;;;3.83;1.77;;;;;;;25.23;45.59;100069.80;1651583;85;21376;-63
2021/07/11 09:18:35;;;;;;;3.55;1.70;;;;;;;25.29;45.77;100070.99;1636249;84;21544;-64
2021/07/11 09:21:06;;;;;;;2.95;1.52;;;;;;;25.33;45.95;100075.04;1661249;84;20912;-64
2021/07/11 09:23:36;;;;;;;2.25;1.60;;;;;;;25.52;46.10;100069.45;1655715;84;21486;-64
2021/07/11 09:26:15;;;;;;;4.03;1.85;;;;;;;25.63;45.99;100066.48;1648170;85;20959;-65
2021/07/11 09:28:49;;;;;;;1.80;1.35;;;;;;;25.81;46.15;100061.52;1647269;84;21511;-65
2021/07/11 09:31:19;;;;;;;2.10;1.50;;;;;;;26.00;45.80;100059.94;1653211;85;20943;-65
2021/07/11 09:33:57;;;;;;;2.12;1.40;;;;;;;25.87;45.54;100060.90;1646358;85;20894;-65
2021/07/11 09:36:24;;;;;;;3.90;1.67;;;;;;;25.73;46.11;100061.50;1661198;84;21473;-64
2021/07/11 09:39:00;;;;;;;2.85;1.50;;;;;;;25.53;45.50;100057.75;1648192;84;20953;-63
2021/07/11 09:41:33;;;;;;;2.77;1.67;;;;;;;25.71;46.34;100062.15;1652412;85;21090;-64
2021/07/11 09:44:01;;;;;;;2.50;1.62;;;;;;;25.88;46.33;100061.26;1657713;84;21039;-63
2021/07/11 09:46:34;;;;;;;2.27;1.42;;;;;;;26.02;46.31;100057.95;1650820;85;20924;-64
2021/07/11 09:49:01;;;;;;;2.52;1.80;;;;;;;26.41;46.85;100062.67;1653942;83;21017;-64
2021/07/11 09:51:30;;;;;;;3.17;1.50;;;;;;;26.63;46.40;100059.01;1648048;84;20961;-64
2021/07/11 09:54:12;;;;;;;4.33;1.60;;;;;;;26.53;46.33;100061.36;1628266;85;21904;-64
2021/07/11 09:56:46;;;;;;;2.52;1.70;;;;;;;26.37;46.26;100058.64;1651735;84;20953;-64
2021/07/11 09:59:16;;;;;;;6.50;1.85;;;;;;;26.36;46.63;100059.66;1661281;84;21059;-63
2021/07/11 10:01:46;;;;;;;1.70;1.50;;;;;;;26.74;46.47;100057.33;1660403;83;20991;-64
2021/07/11 10:04:13;;;;;;;2.75;1.60;;;;;;;26.64;46.11;100054.00;1656704;84;20907;-63
2021/07/11 10:06:42;;;;;;;6.90;2.22;;;;;;;26.72;46.34;100064.69;1647350;85;21501;-64
2021/07/11 10:09:11;;;;;;;2.58;1.72;;;;;;;26.75;45.93;100057.68;1653761;85;20984;-64
2021/07/11 10:11:40;;;;;;;3.60;1.60;;;;;;;26.40;45.84;100060.98;1651942;84;21081;-63
2021/07/11 10:14:07;;;;;;;3.17;1.70;;;;;;;25.96;45.82;100054.56;1649301;84;20969;-65
2021/07/11 10:16:36;;;;;;;2.55;1.70;;;;;;;25.65;45.94;100063.16;1657366;83;21748;-64
2021/07/11 10:19:07;;;;;;;3.67;1.80;;;;;;;25.57;46.10;100056.45;1644094;84;21223;-65
2021/07/11 10:21:37;;;;;;;2.98;1.80;;;;;;;25.71;46.37;100062.15;1647866;85;20909;-65
2021/07/11 10:24:08;;;;;;;2.83;1.70;;;;;;;25.75;46.24;100066.19;1657608;84;20924;-65
2021/07/11 10:26:40;;;;;;;6.08;2.58;;;;;;;25.77;45.83;100059.69;1659132;84;22686;-65
2021/07/11 10:29:20;;;;;;;4.03;2.20;;;;;;;25.60;46.21;100061.47;1641009;84;21027;-65
2021/07/11 10:31:51;;;;;;;2.58;1.90;;;;;;;25.48;46.00;100058.72;1654716;83;21293;-65
2021/07/11 10:34:28;;;;;;;2.42;1.92;;;;;;;25.47;46.56;100046.87;1653538;84;20964;-65
2021/07/11 10:37:14;;;;;;;2.60;2.17;;;;;;;25.74;46.86;100048.45;1634699;85;20937;-65
2021/07/11 10:39:42;;;;;;;2.55;2.08;;;;;;;25.99;46.80;100047.57;1653122;84;21479;-65
2021/07/11 10:42:11;;;;;;;4.03;2.02;;;;;;;26.23;46.84;100056.12;1647058;84;20944;-65
2021/07/11 10:44:39;;;;;;;3.85;2.65;;;;;;;26.32;46.89;100052.44;1640616;85;21256;-62
2021/07/11 10:47:06;;;;;;;4.62;2.37;;;;;;;26.41;46.81;100051.97;1630105;85;20967;-68
2021/07/11 10:49:38;;;;;;;;;;;;;;;26.49;47.01;100048.44;1629889;85;20955;-70
2021/07/11 10:52:08;;;;;;;5.37;2.20;;;;;;;26.64;47.01;100045.97;1636097;85;20105;-68
2021/07/11 10:54:58;;;;;;;2.80;1.72;;;;;;;26.63;46.67;100050.97;1629970;85;21459;-69
2021/07/11 10:57:36;;;;;;;2.77;2.00;;;;;;;26.53;46.81;100050.66;1624573;85;21074;-69
2021/07/11 11:00:21;;;;;;;2.72;2.08;;;;;;;26.60;46.95;100047.30;1602266;85;20952;-69
2021/07/11 11:02:51;;;;;;;4.57;2.53;;;;;;;26.68;46.90;100053.98;1647147;85;21471;-69
2021/07/11 11:05:23;;;;;;;5.35;2.50;;;;;;;26.33;46.70;100062.67;1620960;85;21143;-69
2021/07/11 11:07:57;;;;;;;5.67;2.60;;;;;;;26.10;46.80;100055.76;1592974;87;20968;-69
2021/07/11 11:10:34;;;;;;;6.35;2.75;;;;;;;26.12;47.25;100057.27;1605323;87;21110;-69
2021/07/11 11:13:22;;;;;;;7.33;2.45;;;;;;;26.20;47.12;100058.30;1604064;87;20901;-69
2021/07/11 11:15:58;;;;;;;2.90;2.45;;;;;;;26.03;46.92;100062.28;1639034;85;20985;-69
2021/07/11 11:18:38;;;;;;;3.33;2.40;;;;;;;25.50;46.97;100067.43;1638167;85;20932;-70
2021/07/11 11:21:13;;;;;;;2.75;2.33;;;;;;;25.18;47.22;100064.95;1637720;85;20923;-70
2021/07/11 11:23:47;;;;;;;4.83;2.42;;;;;;;24.79;47.44;100072.51;1606271;85;21098;-69
2021/07/11 11:26:24;;;;;;;4.42;2.85;;;;;;;24.82;47.88;100073.53;1648064;85;21062;-69
2021/07/11 11:28:55;;;;;;;3.47;2.35;;;;;;;25.13;48.37;100067.22;1654637;84;21547;-69
2021/07/11 11:31:30;;;;;;;6.50;2.70;;;;;;;25.40;48.42;100070.71;1645414;84;21013;-70
2021/07/11 11:34:11;;;;;;;4.78;2.47;;;;;;;25.65;48.47;100061.83;1647116;84;21019;-69
2021/07/11 11:36:48;;;;;;;3.60;2.20;;;;;;;25.78;47.93;100066.70;1651241;83;22024;-66
2021/07/11 11:39:25;;;;;;;3.72;2.70;;;;;;;25.50;48.30;100064.75;1648219;85;20990;-69